createdAt,value
2022-08-11T00:05:09.929Z,19.30
2022-08-11T00:09:13.744Z,19.20
2022-08-11T00:13:17.176Z,19.10
2022-08-11T00:17:20.228Z,19.10
2022-08-11T00:22:01.832Z,19.00
2022-08-11T00:25:50.144Z,18.90
2022-08-11T00:29:56.127Z,18.90
2022-08-11T00:34:00.571Z,18.80
2022-08-11T00:38:05.281Z,18.70
2022-08-11T00:42:17.200Z,18.70
2022-08-11T00:46:30.432Z,18.60
2022-08-11T00:50:42.075Z,18.50
2022-08-11T00:54:55.999Z,18.40
2022-08-11T00:59:34.489Z,18.40
2022-08-11T01:03:50.326Z,18.30
2022-08-11T01:08:11.761Z,18.20
2022-08-11T01:12:35.932Z,18.20
2022-08-11T01:16:50.135Z,18.10
2022-08-11T01:21:07.817Z,18.10
2022-08-11T01:25:29.463Z,18.00
2022-08-11T01:29:59.686Z,18.00
2022-08-11T01:34:26.564Z,17.90
2022-08-11T01:38:59.587Z,17.80
2022-08-11T01:43:39.032Z,17.80
2022-08-11T01:47:52.461Z,17.80
2022-08-11T01:52:03.516Z,17.70
2022-08-11T01:56:28.180Z,17.60
2022-08-11T02:00:32.550Z,17.60
2022-08-11T02:04:37.411Z,17.50
2022-08-11T02:08:50.604Z,17.50
2022-08-11T02:12:56.746Z,17.40
2022-08-11T02:17:05.331Z,17.40
2022-08-11T02:21:29.893Z,17.30
2022-08-11T02:25:35.521Z,17.30
2022-08-11T02:29:44.943Z,17.20
2022-08-11T02:33:49.146Z,17.20
2022-08-11T02:37:54.769Z,17.20
2022-08-11T02:42:33.403Z,17.20
2022-08-11T02:46:47.179Z,17.20
2022-08-11T02:50:52.400Z,17.20
2022-08-11T02:55:02.701Z,17.20
2022-08-11T02:59:26.589Z,17.20
2022-08-11T03:03:35.692Z,17.10
2022-08-11T03:07:43.411Z,17.10
2022-08-11T03:12:09.307Z,17.00
2022-08-11T03:16:34.937Z,16.90
2022-08-11T03:20:42.927Z,16.90
2022-08-11T03:24:53.291Z,16.80
2022-08-11T03:29:06.816Z,16.70
2022-08-11T03:33:34.755Z,16.60
2022-08-11T03:37:51.948Z,16.60
2022-08-11T03:42:03.814Z,16.50
2022-08-11T03:46:11.448Z,16.50
2022-08-11T03:50:24.791Z,16.40
2022-08-11T03:54:38.635Z,16.30
2022-08-11T03:58:56.617Z,16.20
2022-08-11T04:03:13.510Z,16.10
2022-08-11T04:07:25.547Z,16.10
2022-08-11T04:11:43.197Z,16.00
2022-08-11T04:16:11.625Z,15.90
2022-08-11T04:20:24.122Z,15.90
2022-08-11T04:24:50.408Z,15.90
2022-08-11T04:29:02.089Z,15.80
2022-08-11T04:33:32.359Z,15.80
2022-08-11T04:37:57.136Z,15.80
2022-08-11T04:42:37.697Z,15.80
2022-08-11T04:47:09.719Z,15.80
2022-08-11T04:51:49.649Z,15.80
2022-08-11T04:56:30.464Z,15.70
2022-08-11T05:00:56.619Z,15.70
2022-08-11T05:05:22.328Z,15.70
2022-08-11T05:09:32.406Z,15.70
2022-08-11T05:13:53.743Z,15.70
2022-08-11T05:18:16.853Z,15.80
2022-08-11T05:22:38.212Z,15.80
2022-08-11T05:27:03.415Z,15.90
2022-08-11T05:31:27.056Z,15.90
2022-08-11T05:36:00.734Z,16.00
2022-08-11T05:40:16.301Z,16.10
2022-08-11T05:44:39.406Z,16.20
2022-08-11T05:49:00.358Z,16.30
2022-08-11T05:53:21.623Z,16.40
2022-08-11T05:57:48.972Z,16.50
2022-08-11T06:01:51.473Z,16.60
2022-08-11T06:05:54.769Z,16.70
2022-08-11T06:09:59.269Z,16.80
2022-08-11T06:14:03.449Z,16.90
2022-08-11T06:18:12.246Z,17.00
2022-08-11T06:22:20.973Z,17.10
2022-08-11T06:26:23.891Z,17.20
2022-08-11T06:30:35.280Z,17.30
2022-08-11T06:34:43.127Z,17.40
2022-08-11T06:38:54.243Z,17.60
2022-08-11T06:42:58.742Z,17.70
2022-08-11T06:47:06.632Z,17.90
2022-08-11T06:51:13.684Z,18.10
2022-08-11T06:55:56.547Z,18.30
2022-08-11T07:00:29.032Z,18.50
2022-08-11T07:04:33.474Z,18.60
2022-08-11T07:09:02.167Z,18.80
2022-08-11T07:13:44.125Z,19.00
2022-08-11T07:22:10.843Z,19.50
2022-08-11T07:42:58.239Z,20.80
2022-08-11T07:47:19.198Z,20.90
2022-08-11T07:51:40.404Z,21.10
2022-08-11T07:55:50.293Z,21.40
2022-08-11T08:00:14.893Z,21.60
2022-08-11T08:04:37.509Z,21.90
2022-08-11T08:08:58.295Z,22.20
2022-08-11T08:13:21.464Z,22.50
2022-08-11T08:17:43.869Z,22.80
2022-08-11T08:21:46.781Z,23.00
2022-08-11T08:25:52.928Z,23.40
2022-08-11T08:30:13.355Z,23.60
2022-08-11T08:34:17.709Z,23.90
2022-08-11T08:38:20.670Z,24.30
2022-08-11T08:42:26.063Z,24.60
2022-08-11T08:46:31.487Z,24.80
2022-08-11T08:50:54.637Z,25.10
2022-08-11T08:54:59.245Z,25.50
2022-08-11T08:59:02.852Z,25.80
2022-08-11T09:03:29.561Z,26.10
2022-08-11T09:07:38.435Z,26.40
2022-08-11T09:11:53.584Z,26.70
2022-08-11T09:15:56.615Z,27.10
2022-08-11T09:20:01.560Z,27.40
2022-08-11T09:24:26.382Z,27.70
2022-08-11T09:28:30.993Z,28.10
2022-08-11T09:32:34.404Z,28.40
2022-08-11T09:36:54.796Z,28.70
2022-08-11T09:41:00.169Z,29.00
2022-08-11T09:45:04.584Z,29.40
2022-08-11T09:49:07.511Z,29.70
2022-08-11T09:53:34.794Z,30.00
2022-08-11T09:57:57.115Z,30.20
2022-08-11T10:02:01.466Z,30.50
2022-08-11T10:06:34.175Z,30.70
2022-08-11T10:10:38.447Z,30.90
2022-08-11T10:15:02.669Z,31.20
2022-08-11T10:19:05.749Z,31.40
2022-08-11T10:23:27.003Z,31.70
2022-08-11T10:28:18.498Z,31.90
2022-08-11T10:32:13.769Z,32.10
2022-08-11T10:36:19.196Z,32.40
2022-08-11T10:40:23.519Z,32.60
2022-08-11T10:44:26.677Z,32.80
2022-08-11T10:48:32.948Z,32.90
2022-08-11T10:52:53.925Z,33.10
2022-08-11T10:57:14.488Z,33.10
2022-08-11T11:01:18.129Z,33.30
2022-08-11T11:05:25.065Z,33.40
2022-08-11T11:09:32.607Z,33.60
2022-08-11T11:13:55.275Z,33.80
2022-08-11T11:18:04.728Z,34.00
2022-08-11T11:22:24.823Z,33.90
2022-08-11T11:26:32.108Z,34.10
2022-08-11T11:30:38.857Z,34.30
2022-08-11T11:34:54.013Z,34.40
2022-08-11T11:38:59.015Z,34.50
2022-08-11T11:43:02.351Z,34.70
2022-08-11T11:47:06.464Z,34.80
2022-08-11T11:51:14.129Z,34.90
2022-08-11T11:55:19.025Z,35.00
2022-08-11T11:59:40.034Z,35.10
2022-08-11T12:03:44.948Z,35.20
2022-08-11T12:08:13.037Z,35.30
2022-08-11T12:12:35.436Z,35.40
2022-08-11T12:16:39.270Z,35.60
2022-08-11T12:20:42.187Z,35.70
2022-08-11T12:25:04.708Z,35.80
2022-08-11T12:29:10.835Z,35.90
2022-08-11T12:33:13.752Z,36.00
2022-08-11T12:37:32.066Z,36.10
2022-08-11T12:42:04.733Z,36.10
2022-08-11T12:46:10.298Z,36.20
2022-08-11T12:50:30.798Z,36.10
2022-08-11T12:54:35.311Z,36.10
2022-08-11T12:58:40.570Z,36.10
2022-08-11T13:03:02.919Z,36.10
2022-08-11T13:07:05.799Z,36.20
2022-08-11T13:11:56.980Z,36.20
2022-08-11T13:15:52.272Z,36.30
2022-08-11T13:19:56.876Z,36.30
2022-08-11T13:24:03.011Z,36.30
2022-08-11T13:28:06.598Z,36.20
2022-08-11T13:32:11.323Z,36.20
2022-08-11T13:36:18.845Z,36.20
2022-08-11T13:40:33.168Z,36.20
2022-08-11T13:44:45.863Z,36.10
2022-08-11T13:48:48.763Z,36.00
2022-08-11T13:53:02.378Z,36.00
2022-08-11T13:57:08.334Z,36.00
2022-08-11T14:02:03.809Z,36.00
2022-08-11T14:05:40.351Z,36.00
2022-08-11T14:09:56.560Z,36.00
2022-08-11T14:14:00.581Z,36.10
2022-08-11T14:18:05.458Z,36.10
2022-08-11T14:22:08.869Z,36.20
2022-08-11T14:26:27.965Z,36.20
2022-08-11T14:30:48.221Z,36.30
2022-08-11T14:34:51.492Z,36.40
2022-08-11T14:38:55.097Z,36.40
2022-08-11T14:43:18.045Z,36.40
2022-08-11T14:47:23.739Z,36.30
2022-08-11T14:51:28.428Z,36.30
2022-08-11T14:55:50.304Z,36.20
2022-08-11T14:59:57.295Z,36.20
2022-08-11T15:04:27.325Z,36.20
2022-08-11T15:08:44.939Z,36.20
2022-08-11T15:12:48.137Z,36.20
2022-08-11T15:17:11.706Z,36.20
2022-08-11T15:21:32.225Z,36.20
2022-08-11T15:25:35.763Z,36.10
2022-08-11T15:29:53.774Z,36.10
2022-08-11T15:34:23.919Z,36.10
2022-08-11T15:38:27.950Z,36.10
2022-08-11T15:42:48.882Z,36.20
2022-08-11T15:46:55.318Z,36.20
2022-08-11T15:51:03.319Z,36.40
2022-08-11T15:55:08.708Z,36.40
2022-08-11T15:59:41.896Z,36.60
2022-08-11T16:04:09.091Z,37.10
2022-08-11T16:08:15.606Z,37.30
2022-08-11T16:12:20.793Z,37.80
2022-08-11T16:16:22.942Z,38.20
2022-08-11T16:20:27.094Z,38.40
2022-08-11T16:27:01.791Z,38.50
2022-08-11T16:28:56.320Z,38.60
2022-08-11T16:32:59.883Z,38.80
2022-08-11T16:37:41.692Z,38.80
2022-08-11T16:42:03.934Z,38.80
2022-08-11T16:46:25.622Z,38.80
2022-08-11T16:50:30.138Z,38.70
2022-08-11T16:54:33.611Z,38.60
2022-08-11T16:58:57.291Z,38.50
2022-08-11T17:03:28.386Z,38.30
2022-08-11T17:07:49.039Z,38.00
2022-08-11T17:12:11.380Z,37.70
2022-08-11T17:16:17.527Z,37.30
2022-08-11T17:20:39.862Z,36.90
2022-08-11T17:24:45.844Z,36.50
2022-08-11T17:28:51.457Z,36.00
2022-08-11T17:33:13.229Z,35.60
2022-08-11T17:37:16.584Z,35.30
2022-08-11T17:41:37.773Z,34.90
2022-08-11T17:45:58.578Z,34.20
2022-08-11T17:50:15.956Z,33.90
2022-08-11T17:54:39.863Z,33.50
2022-08-11T17:59:02.063Z,33.50
2022-08-11T18:03:25.669Z,33.10
2022-08-11T18:07:47.435Z,32.80
2022-08-11T18:12:12.287Z,32.50
2022-08-11T18:16:33.122Z,32.30
2022-08-11T18:20:54.451Z,32.00
2022-08-11T18:25:19.864Z,31.70
2022-08-11T18:29:42.229Z,31.50
2022-08-11T18:34:07.486Z,31.30
2022-08-11T18:38:29.477Z,31.10
2022-08-11T18:42:57.752Z,30.80
2022-08-11T18:47:19.079Z,30.60
2022-08-11T18:51:45.454Z,30.40
2022-08-11T18:56:07.063Z,30.10
2022-08-11T19:00:31.360Z,29.90
2022-08-11T19:04:51.844Z,29.70
2022-08-11T19:09:13.572Z,29.40
2022-08-11T19:13:34.012Z,29.20
2022-08-11T19:17:58.931Z,28.90
2022-08-11T19:22:20.695Z,28.70
2022-08-11T19:26:42.424Z,28.50
2022-08-11T19:31:03.200Z,28.30
2022-08-11T19:35:25.453Z,28.10
2022-08-11T19:39:46.325Z,27.80
2022-08-11T19:44:08.025Z,27.60
2022-08-11T19:48:32.253Z,27.40
2022-08-11T19:52:55.455Z,27.20
2022-08-11T19:57:18.216Z,27.00
2022-08-11T20:01:38.435Z,26.80
2022-08-11T20:06:19.953Z,26.60
2022-08-11T20:10:42.192Z,26.40
2022-08-11T20:15:02.879Z,26.30
2022-08-11T20:19:26.105Z,26.10
2022-08-11T20:24:05.534Z,26.00
2022-08-11T20:28:28.082Z,25.80
2022-08-11T20:32:48.535Z,25.70
2022-08-11T20:37:09.803Z,25.60
2022-08-11T20:41:30.112Z,25.40
2022-08-11T20:45:55.238Z,25.30
2022-08-11T20:54:59.241Z,25.00
2022-08-11T20:59:21.778Z,24.80
2022-08-11T21:03:44.809Z,24.70
2022-08-11T21:08:07.559Z,24.50
2022-08-11T21:12:28.898Z,24.40
2022-08-11T21:16:53.201Z,24.20
2022-08-11T21:21:19.655Z,24.10
2022-08-11T21:25:41.113Z,23.90
2022-08-11T21:30:02.700Z,23.80
2022-08-11T21:34:23.226Z,23.70
2022-08-11T21:38:46.746Z,23.60
2022-08-11T21:43:07.557Z,23.50
2022-08-11T21:47:43.307Z,23.30
2022-08-11T21:52:04.249Z,23.20
2022-08-11T21:56:27.607Z,23.10
2022-08-11T22:00:48.721Z,22.90
2022-08-11T22:05:10.061Z,22.90
2022-08-11T22:09:31.990Z,22.70
2022-08-11T22:14:05.699Z,22.60
2022-08-11T22:18:28.620Z,22.60
2022-08-11T22:22:53.218Z,22.50
2022-08-11T22:27:14.135Z,22.30
2022-08-11T22:31:36.024Z,22.20
2022-08-11T22:35:57.246Z,22.10
2022-08-11T22:40:17.744Z,22.00
2022-08-11T22:44:37.934Z,21.90
2022-08-11T22:49:00.357Z,21.80
2022-08-11T22:53:21.336Z,21.70
2022-08-11T22:58:00.534Z,21.60
2022-08-11T23:02:22.633Z,21.50
2022-08-11T23:06:44.262Z,21.50
2022-08-11T23:11:04.920Z,21.40
2022-08-11T23:15:25.719Z,21.30
2022-08-11T23:20:12.067Z,21.30
2022-08-11T23:24:29.424Z,21.30
2022-08-11T23:28:51.292Z,21.30
2022-08-11T23:33:14.974Z,21.30
2022-08-11T23:37:35.176Z,21.20
2022-08-11T23:42:01.187Z,21.20
2022-08-11T23:46:24.299Z,21.10
2022-08-11T23:50:45.204Z,21.10
2022-08-11T23:55:05.552Z,21.00
2022-08-11T23:59:28.809Z,20.90
